Hercules — WDI7674 — position and weather

sailwx.info

Track history (hours):
 
Tides and Currents Weather Stations Pressure Air Temp Water Temp Dewpoint Dewpoint Depression Visibility Wind Speed Wind Dir Waves Ship Positions

Hercules

Owner: P&L Towing and Transportation, Inc., Southwest Ranches, FL. More information available from US FCC via Universal Licensing System and Coast Guard Vessel Documentation Center.

Last reported at 2018-Jun-21 21:59 UTC. Time now 2018-Jun-21 22:07 UTC.
Position N 39°45' W 074°07'.

Length 20 m; draft 2.5 m.

Type: Towing. MMSI: 367080670.

Date/timePositionNaut miles runAvg speedWind from/ knotsBaromVisibWave heightAir tempDewpointWater temp
2018-Jun-21 21:59N 39°45' W 074°07'0 0.0
2018-Jun-21 21:29N 39°45' W 074°07'0 0.0
2018-Jun-21 20:58N 39°45' W 074°07'0 0.0
2018-Jun-21 20:30N 39°45' W 074°07'0 0.0
2018-Jun-21 19:58N 39°45' W 074°07'0 0.0
2018-Jun-21 19:29N 39°45' W 074°07'0 0.0
2018-Jun-21 18:59N 39°45' W 074°07'0 0.0
2018-Jun-21 18:29N 39°45' W 074°07'0 0.0
2018-Jun-21 18:00N 39°45' W 074°07'0 0.0
2018-Jun-21 17:29N 39°45' W 074°07'0 0.0
2018-Jun-21 17:00N 39°45' W 074°07'0 0.0
2018-Jun-21 16:22N 39°45' W 074°07'0 0.0
2018-Jun-21 16:00N 39°45' W 074°07'0 0.0
2018-Jun-21 15:25N 39°45' W 074°07'0 0.0
2018-Jun-21 15:00N 39°45' W 074°07'1 2.0
2018-Jun-21 14:30N 39°46' W 074°06'2 4.5
2018-Jun-21 14:00N 39°44' W 074°05'3 6.5
2018-Jun-21 13:29N 39°41' W 074°07'0 0.4
2018-Jun-21 13:00N 39°41' W 074°07'0 0.0
2018-Jun-21 12:30N 39°41' W 074°07'1 1.1
2018-Jun-21 12:00N 39°41' W 074°06'2 4.1
2018-Jun-21 11:30N 39°43' W 074°05'3 5.0
2018-Jun-21 10:57N 39°46' W 074°06'1 2.3
2018-Jun-21 10:30N 39°45' W 074°07'0 0.0
2018-Jun-21 09:59N 39°45' W 074°07'0 0.0
2018-Jun-21 09:30N 39°45' W 074°07'0 0.0
2018-Jun-21 08:59N 39°45' W 074°07'0 0.0
2018-Jun-21 08:30N 39°45' W 074°07'0 0.0
2018-Jun-21 08:00N 39°45' W 074°07'0 0.0
2018-Jun-21 07:24N 39°45' W 074°07'0 0.0
2018-Jun-21 07:00N 39°45' W 074°07'0 0.0
2018-Jun-21 06:27N 39°45' W 074°07'0 0.0
2018-Jun-21 06:00N 39°45' W 074°07'0 0.0
2018-Jun-21 05:28N 39°45' W 074°07'0 0.0
2018-Jun-21 05:00N 39°45' W 074°07'0 0.0
2018-Jun-21 04:26N 39°45' W 074°07'0 0.0
2018-Jun-21 03:56N 39°45' W 074°07'0 0.0
2018-Jun-21 03:29N 39°45' W 074°07'0 0.0
2018-Jun-21 02:54N 39°45' W 074°07'0 0.0
2018-Jun-21 02:29N 39°45' W 074°07'0 0.0
2018-Jun-21 01:59N 39°45' W 074°07'0 0.0
2018-Jun-21 01:27N 39°45' W 074°07'0 0.0
2018-Jun-21 01:00N 39°45' W 074°07'0 0.0
2018-Jun-21 00:28N 39°45' W 074°07'0 0.0
2018-Jun-21 00:00N 39°45' W 074°07'0 0.0
2018-Jun-20 23:30N 39°45' W 074°07'0 0.0
2018-Jun-20 23:00N 39°45' W 074°07'0 0.0
2018-Jun-20 22:30N 39°45' W 074°07'0 0.0
2018-Jun-20 22:00N 39°45' W 074°07'1 2.0
2018-Jun-20 21:30N 39°46' W 074°06'2 4.3
2018-Jun-20 20:58N 39°48' W 074°05'1 0.2
2018-Jun-20 15:45N 39°49' W 074°04'2 7.3
2018-Jun-20 15:28N 39°47' W 074°05'3 7.0
2018-Jun-20 15:00N 39°44' W 074°05'4 7.2
2018-Jun-20 14:30N 39°41' W 074°08'4 7.2
2018-Jun-20 14:00N 39°38' W 074°10'1 1.4
2018-Jun-20 13:28N 39°37' W 074°11'0 1.0
2018-Jun-20 12:59N 39°38' W 074°11'0 0.7
2018-Jun-20 12:29N 39°38' W 074°11'0 0.3
2018-Jun-20 11:58N 39°38' W 074°10'2 4.6
2018-Jun-20 11:27N 39°40' W 074°09'3 6.5
2018-Jun-20 11:00N 39°42' W 074°07'3 6.5
2018-Jun-20 10:30N 39°45' W 074°05'2 3.3
2018-Jun-20 10:00N 39°45' W 074°07'0 0.0
2018-Jun-20 09:28N 39°45' W 074°07'0 0.0
2018-Jun-20 08:58N 39°45' W 074°07'0 0.0
2018-Jun-20 08:30N 39°45' W 074°07'0 0.0
2018-Jun-20 08:00N 39°45' W 074°07'0 0.0
2018-Jun-20 07:30N 39°45' W 074°07'0 0.0
2018-Jun-20 06:57N 39°45' W 074°07'0 0.0
2018-Jun-20 06:30N 39°45' W 074°07'0 0.0
2018-Jun-20 05:57N 39°45' W 074°07'0 0.0
2018-Jun-20 05:30N 39°45' W 074°07'0 0.0
2018-Jun-20 05:00N 39°45' W 074°07'0 0.0
2018-Jun-20 04:29N 39°45' W 074°07'0 0.0
2018-Jun-20 03:59N 39°45' W 074°07'0 0.0
2018-Jun-20 03:28N 39°45' W 074°07'0 0.0
2018-Jun-20 03:00N 39°45' W 074°07'0 0.0
2018-Jun-20 02:30N 39°45' W 074°07'0 0.0
2018-Jun-20 01:59N 39°45' W 074°07'0 0.0
2018-Jun-20 01:24N 39°45' W 074°07'0 0.0
2018-Jun-20 00:59N 39°45' W 074°07'0 0.0
2018-Jun-20 00:30N 39°45' W 074°07'0 0.0
2018-Jun-19 23:59N 39°45' W 074°07'0 0.0
2018-Jun-19 23:26N 39°45' W 074°07'0 0.0
2018-Jun-19 23:00N 39°45' W 074°07'0 0.0
2018-Jun-19 22:30N 39°45' W 074°07'0 0.0
2018-Jun-19 21:59N 39°45' W 074°07'0 0.0
2018-Jun-19 21:29N 39°45' W 074°07'0 0.0
2018-Jun-19 21:00N 39°45' W 074°07'0 0.0
2018-Jun-19 20:30N 39°45' W 074°07'0 0.0
2018-Jun-19 19:56N 39°45' W 074°07'0 0.0
2018-Jun-19 19:30N 39°45' W 074°07'0 0.0
2018-Jun-19 18:59N 39°45' W 074°07'0 0.0
2018-Jun-19 18:29N 39°45' W 074°07'0 0.0
2018-Jun-19 18:00N 39°45' W 074°07'1 1.7
2018-Jun-19 17:30N 39°46' W 074°07'0 0.2
2018-Jun-19 16:59N 39°46' W 074°07'0 0.4
2018-Jun-19 16:29N 39°46' W 074°07'0 0.0
2018-Jun-19 16:00N 39°46' W 074°07'0 0.0
2018-Jun-19 15:30N 39°46' W 074°07'0 0.1
2018-Jun-19 14:58N 39°46' W 074°07'1 2.4
2018-Jun-19 14:28N 39°46' W 074°06'2 3.7
2018-Jun-19 14:00N 39°44' W 074°05'3 5.0
2018-Jun-19 13:30N 39°42' W 074°07'3 5.1
2018-Jun-19 13:00N 39°40' W 074°09'2 4.7
2018-Jun-19 12:30N 39°38' W 074°11'0 0.2
2018-Jun-19 11:43N 39°38' W 074°10'0 0.4
2018-Jun-19 11:29N 39°38' W 074°11'2 4.6
2018-Jun-19 11:00N 39°39' W 074°09'3 5.6
2018-Jun-19 10:30N 39°42' W 074°07'3 5.6
2018-Jun-19 09:59N 39°44' W 074°05'2 3.5
2018-Jun-19 09:27N 39°45' W 074°07'0 0.6
2018-Jun-19 08:57N 39°45' W 074°07'0 0.0
2018-Jun-19 08:19N 39°45' W 074°07'0 0.0
2018-Jun-19 07:59N 39°45' W 074°07'0 0.0
2018-Jun-19 07:30N 39°45' W 074°07'0 0.0
2018-Jun-19 07:00N 39°45' W 074°07'0 0.0
2018-Jun-19 06:24N 39°45' W 074°07'0 0.0
2018-Jun-19 05:59N 39°45' W 074°07'0 0.0
2018-Jun-19 05:29N 39°45' W 074°07'0 0.0
2018-Jun-19 04:58N 39°45' W 074°07'0 0.0
2018-Jun-19 04:30N 39°45' W 074°07'0 0.0
2018-Jun-19 04:00N 39°45' W 074°07'0 0.0
2018-Jun-19 03:30N 39°45' W 074°07'0 0.0
2018-Jun-19 02:52N 39°45' W 074°07'0 0.0
2018-Jun-19 02:30N 39°45' W 074°07'0 0.0
2018-Jun-19 02:00N 39°45' W 074°07'0 0.0
2018-Jun-19 01:29N 39°45' W 074°07'0 0.0
2018-Jun-19 01:00N 39°45' W 074°07'0 0.0
2018-Jun-19 00:28N 39°45' W 074°07'0 0.0
2018-Jun-19 00:00N 39°45' W 074°07'0 0.0
2018-Jun-18 23:28N 39°45' W 074°07'0 0.0
2018-Jun-18 22:57N 39°45' W 074°07'0 0.0
2018-Jun-18 22:28N 39°45' W 074°07'0 0.0
2018-Jun-18 21:59N 39°45' W 074°07'0 0.0
2018-Jun-18 21:28N 39°45' W 074°07'0 0.0
2018-Jun-18 21:00N 39°45' W 074°07'0 0.3
2018-Jun-18 20:30N 39°45' W 074°07'2 2.7
2018-Jun-18 19:52N 39°45' W 074°05'3 7.2
2018-Jun-18 19:28N 39°42' W 074°05'1 2.3
2018-Jun-18 18:53N 39°41' W 074°06'0 0.0
2018-Jun-18 18:29N 39°41' W 074°06'0 0.0
2018-Jun-18 17:59N 39°41' W 074°06'0 0.0
2018-Jun-18 17:25N 39°41' W 074°06'0 0.0
2018-Jun-18 16:55N 39°41' W 074°06'0 0.1
2018-Jun-18 16:19N 39°41' W 074°06'1 3.0
2018-Jun-18 15:59N 39°40' W 074°06'2 4.1
2018-Jun-18 15:30N 39°39' W 074°09'0 0.1
2018-Jun-18 15:00N 39°39' W 074°09'0 0.0
2018-Jun-18 14:28N 39°39' W 074°09'0 0.2
2018-Jun-18 13:58N 39°39' W 074°09'2 4.0
2018-Jun-18 13:30N 39°38' W 074°10'0 0.7
2018-Jun-18 12:59N 39°37' W 074°10'0 0.1
2018-Jun-18 12:29N 39°37' W 074°10'0 0.4
2018-Jun-18 11:58N 39°38' W 074°10'3 5.7
2018-Jun-18 11:28N 39°40' W 074°08'3 6.2
2018-Jun-18 11:00N 39°43' W 074°06'3 5.6
2018-Jun-18 10:27N 39°46' W 074°05'1 2.4
2018-Jun-18 10:00N 39°45' W 074°07'0 0.0
2018-Jun-18 09:28N 39°45' W 074°07'0 0.0
2018-Jun-18 09:00N 39°45' W 074°07'0 0.0
2018-Jun-18 08:30N 39°45' W 074°07'0 0.0
2018-Jun-18 08:00N 39°45' W 074°07'0 0.0
2018-Jun-18 07:30N 39°45' W 074°07'0 0.0
2018-Jun-18 06:58N 39°45' W 074°07'0 0.0
2018-Jun-18 06:30N 39°45' W 074°07'0 0.0
2018-Jun-18 06:00N 39°45' W 074°07'0 0.0
2018-Jun-18 05:29N 39°45' W 074°07'0 0.0
2018-Jun-18 04:59N 39°45' W 074°07'0 0.0
2018-Jun-18 04:30N 39°45' W 074°07'0 0.0
2018-Jun-18 04:00N 39°45' W 074°07'0 0.0
2018-Jun-18 03:29N 39°45' W 074°07'0 0.0
2018-Jun-18 02:59N 39°45' W 074°07'0 0.0
2018-Jun-18 02:27N 39°45' W 074°07'0 0.0
2018-Jun-18 01:54N 39°45' W 074°07'0 0.0
2018-Jun-18 01:30N 39°45' W 074°07'0 0.0
2018-Jun-18 00:54N 39°45' W 074°07'0 0.0
2018-Jun-18 00:30N 39°45' W 074°07'0 0.0
2018-Jun-18 00:00N 39°45' W 074°07'0 0.0
2018-Jun-17 23:30N 39°45' W 074°07'0 0.0
2018-Jun-17 23:00N 39°45' W 074°07'1 1.5
2018-Jun-17 22:30N 39°46' W 074°07'2 3.6
2018-Jun-17 22:00N 39°45' W 074°05'4 7.6
2018-Jun-17 21:30N 39°41' W 074°06'1 1.0
2018-Jun-17 21:00N 39°41' W 074°06'1 1.2
2018-Jun-17 20:30N 39°41' W 074°06'0 0.3
2018-Jun-17 19:58N 39°41' W 074°07'0 0.3
2018-Jun-17 19:30N 39°41' W 074°07'0 0.2
2018-Jun-17 18:58N 39°41' W 074°07'0 0.0
2018-Jun-17 18:27N 39°41' W 074°07'1 1.4
2018-Jun-17 18:00N 39°41' W 074°06'0 0.1
2018-Jun-17 17:29N 39°41' W 074°06'1 1.5
2018-Jun-17 17:00N 39°41' W 074°07'0 0.3
2018-Jun-17 16:29N 39°41' W 074°06'0 0.2
2018-Jun-17 16:00N 39°41' W 074°06'0 0.0
2018-Jun-17 15:29N 39°41' W 074°06'0 0.3
2018-Jun-17 14:57N 39°41' W 074°06'0 0.1
2018-Jun-17 14:30N 39°41' W 074°07'0 0.2
2018-Jun-17 14:00N 39°41' W 074°07'0 0.1
2018-Jun-17 13:30N 39°41' W 074°07'0 0.3
2018-Jun-17 12:59N 39°41' W 074°07'0 0.1
2018-Jun-17 12:29N 39°41' W 074°07'0 0.2
2018-Jun-17 11:59N 39°41' W 074°07'0 0.4
2018-Jun-17 11:30N 39°41' W 074°07'2 3.3
2018-Jun-17 10:59N 39°41' W 074°04'1 1.6
2018-Jun-17 10:30N 39°41' W 074°03'2 3.5
2018-Jun-17 09:59N 39°43' W 074°04'4 7.9
2018-Jun-17 09:30N 39°46' W 074°06'1 1.8
2018-Jun-17 09:00N 39°45' W 074°07'0 0.0
2018-Jun-17 08:29N 39°45' W 074°07'0 0.0
2018-Jun-17 08:00N 39°45' W 074°07'0 0.0
2018-Jun-17 07:29N 39°45' W 074°07'0 0.0
2018-Jun-17 06:53N 39°45' W 074°07'0 0.0
2018-Jun-17 06:28N 39°45' W 074°07'0 0.0
2018-Jun-17 05:58N 39°45' W 074°07'0 0.0
2018-Jun-17 05:30N 39°45' W 074°07'0 0.0
2018-Jun-17 04:59N 39°45' W 074°07'0 0.0
2018-Jun-17 04:30N 39°45' W 074°07'0 0.0
2018-Jun-17 04:00N 39°45' W 074°07'0 0.0
2018-Jun-17 03:29N 39°45' W 074°07'0 0.0
2018-Jun-17 03:00N 39°45' W 074°07'0 0.0
2018-Jun-17 02:28N 39°45' W 074°07'0 0.0
2018-Jun-17 01:58N 39°45' W 074°07'0 0.0
2018-Jun-17 01:30N 39°45' W 074°07'0 0.0
2018-Jun-17 00:59N 39°45' W 074°07'0 0.0
2018-Jun-17 00:30N 39°45' W 074°07'0 0.0
2018-Jun-17 00:00N 39°45' W 074°07'0 0.0
2018-Jun-16 23:29N 39°45' W 074°07'0 0.0
2018-Jun-16 23:00N 39°45' W 074°07'1 2.3
2018-Jun-16 22:30N 39°45' W 074°05'4 9.0
2018-Jun-16 22:00N 39°41' W 074°06'0 0.8
2018-Jun-16 21:29N 39°41' W 074°07'0 0.2
2018-Jun-16 20:56N 39°41' W 074°07'0 0.2
2018-Jun-16 20:30N 39°41' W 074°07'0 0.3
2018-Jun-16 19:59N 39°41' W 074°07'0 0.3
2018-Jun-16 19:29N 39°41' W 074°07'0 0.1
2018-Jun-16 19:00N 39°41' W 074°07'0 0.1
2018-Jun-16 18:30N 39°41' W 074°07'0 0.7
2018-Jun-16 17:58N 39°41' W 074°06'2 3.7
2018-Jun-16 17:30N 39°41' W 074°04'0 0.0
2018-Jun-16 16:54N 39°41' W 074°04'0 0.0
2018-Jun-16 16:25N 39°41' W 074°04'0 0.0
2018-Jun-16 15:54N 39°41' W 074°04'0 0.3
2018-Jun-16 15:30N 39°41' W 074°04'0 0.5
2018-Jun-16 14:57N 39°41' W 074°04'0 0.4
2018-Jun-16 14:28N 39°41' W 074°04'0 0.1
2018-Jun-16 14:00N 39°41' W 074°04'0 0.0
2018-Jun-16 13:30N 39°41' W 074°04'0 0.4
2018-Jun-16 12:58N 39°41' W 074°04'0 0.4
2018-Jun-16 12:25N 39°41' W 074°04'1 2.6
2018-Jun-16 12:00N 39°41' W 074°05'0 0.1
2018-Jun-16 11:28N 39°41' W 074°05'1 1.9
2018-Jun-16 10:57N 39°41' W 074°04'0 0.1
2018-Jun-16 10:24N 39°41' W 074°04'0 1.1
2018-Jun-16 09:59N 39°42' W 074°04'2 3.4
2018-Jun-16 09:30N 39°43' W 074°04'3 5.8
2018-Jun-16 08:58N 39°46' W 074°06'1 1.6
2018-Jun-16 08:29N 39°45' W 074°07'0 0.0
2018-Jun-16 07:57N 39°45' W 074°07'0 0.0
2018-Jun-16 07:30N 39°45' W 074°07'0 0.0
2018-Jun-16 07:00N 39°45' W 074°07'0 0.0
2018-Jun-16 06:30N 39°45' W 074°07'0 0.0
2018-Jun-16 06:00N 39°45' W 074°07'0 0.0
2018-Jun-16 05:29N 39°45' W 074°07'0 0.0
2018-Jun-16 04:59N 39°45' W 074°07'0 0.0
2018-Jun-16 04:28N 39°45' W 074°07'0 0.0
2018-Jun-16 03:58N 39°45' W 074°07'0 0.0
2018-Jun-16 03:30N 39°45' W 074°07'0 0.0
2018-Jun-16 02:56N 39°45' W 074°07'0 0.0
2018-Jun-16 02:30N 39°45' W 074°07'0 0.0
2018-Jun-16 01:56N 39°45' W 074°07'0 0.0
2018-Jun-16 01:28N 39°45' W 074°07'0 0.0
2018-Jun-16 00:59N 39°45' W 074°07'0 0.0
2018-Jun-16 00:26N 39°45' W 074°07'0 0.0
2018-Jun-16 00:00N 39°45' W 074°07'0 0.0
2018-Jun-15 23:28N 39°45' W 074°07'0 0.0
2018-Jun-15 22:59N 39°45' W 074°07'0 0.0
2018-Jun-15 22:30N 39°45' W 074°07'0 0.0
2018-Jun-15 21:58N 39°45' W 074°07'0 0.0
2018-Jun-15 21:27N 39°45' W 074°07'2 3.0
2018-Jun-15 20:56N 39°45' W 074°05'3 6.9
2018-Jun-15 20:28N 39°42' W 074°07'4 5.5
2018-Jun-15 19:50N 39°39' W 074°09'0 0.7
2018-Jun-15 19:30N 39°39' W 074°09'0 0.4
2018-Jun-15 18:53N 39°39' W 074°09'0 0.0
2018-Jun-15 18:30N 39°39' W 074°09'2 2.8
2018-Jun-15 17:46N 39°37' W 074°10'1 2.0
2018-Jun-15 17:08N 39°36' W 074°11'0 1.1
2018-Jun-15 17:00N 39°36' W 074°11'1 1.7
2018-Jun-15 16:28N 39°35' W 074°11'16 1.6
2018-Jun-15 06:11N 39°24' W 074°26'0 0.0
2018-Jun-15 06:00N 39°24' W 074°26'0 0.0
2018-Jun-15 05:30N 39°24' W 074°26'0 0.0
2018-Jun-15 05:00N 39°24' W 074°26'0 0.0
2018-Jun-15 04:30N 39°24' W 074°26'0 0.0
2018-Jun-15 03:56N 39°24' W 074°26'0 0.0
2018-Jun-15 03:27N 39°24' W 074°26'  
2018-Jun-12 12:54N 39°22' W 074°26'0 0.0
2018-Jun-12 12:31N 39°22' W 074°26'0 0.0
2018-Jun-12 12:00N 39°22' W 074°26'0 0.0
2018-Jun-12 11:29N 39°22' W 074°26'1 2.9
2018-Jun-12 11:01N 39°24' W 074°26'0 0.0
2018-Jun-12 10:12N 39°24' W 074°26'0 0.0
2018-Jun-12 09:58N 39°24' W 074°26'0 0.0
2018-Jun-12 09:02N 39°24' W 074°26'0 0.0
2018-Jun-12 08:47N 39°24' W 074°26'0 0.0
2018-Jun-12 08:13N 39°24' W 074°26'0 0.0
2018-Jun-12 07:04N 39°24' W 074°26'0 0.0
2018-Jun-12 07:00N 39°24' W 074°26'0 0.1
2018-Jun-12 06:29N 39°24' W 074°26'0 0.0
2018-Jun-12 05:57N 39°24' W 074°26'0 0.0
2018-Jun-12 05:23N 39°24' W 074°26'0 0.0
2018-Jun-12 02:09N 39°24' W 074°26'0 0.0
2018-Jun-12 01:59N 39°24' W 074°26'0 0.0
2018-Jun-12 01:03N 39°24' W 074°26'0 0.0
2018-Jun-12 01:00N 39°24' W 074°26'0 0.0
2018-Jun-12 00:30N 39°24' W 074°26'  
Track history (hours):
 
Tides and Currents Weather Stations Pressure Air Temp Water Temp Dewpoint Dewpoint Depression Visibility Wind Speed Wind Dir Waves Ship Positions

Hercules

Owner: P&L Towing and Transportation, Inc., Southwest Ranches, FL. More information available from US FCC via Universal Licensing System and Coast Guard Vessel Documentation Center.

Last reported at 2018-Jun-21 21:59 UTC. Time now 2018-Jun-21 22:07 UTC.
Position N 39°45' W 074°07'.

Length 20 m; draft 2.5 m.

Type: Towing. MMSI: 367080670.

Date/timePositionNaut miles runAvg speedWind from/ knotsBaromVisibWave heightAir tempDewpointWater temp
2018-Jun-21 21:59N 39°45' W 074°07'0 0.0
2018-Jun-21 21:29N 39°45' W 074°07'0 0.0
2018-Jun-21 20:58N 39°45' W 074°07'0 0.0
2018-Jun-21 20:30N 39°45' W 074°07'0 0.0
2018-Jun-21 19:58N 39°45' W 074°07'0 0.0
2018-Jun-21 19:29N 39°45' W 074°07'0 0.0
2018-Jun-21 18:59N 39°45' W 074°07'0 0.0
2018-Jun-21 18:29N 39°45' W 074°07'0 0.0
2018-Jun-21 18:00N 39°45' W 074°07'0 0.0
2018-Jun-21 17:29N 39°45' W 074°07'0 0.0
2018-Jun-21 17:00N 39°45' W 074°07'0 0.0
2018-Jun-21 16:22N 39°45' W 074°07'0 0.0
2018-Jun-21 16:00N 39°45' W 074°07'0 0.0
2018-Jun-21 15:25N 39°45' W 074°07'0 0.0
2018-Jun-21 15:00N 39°45' W 074°07'1 2.0
2018-Jun-21 14:30N 39°46' W 074°06'2 4.5
2018-Jun-21 14:00N 39°44' W 074°05'3 6.5
2018-Jun-21 13:29N 39°41' W 074°07'0 0.4
2018-Jun-21 13:00N 39°41' W 074°07'0 0.0
2018-Jun-21 12:30N 39°41' W 074°07'1 1.1
2018-Jun-21 12:00N 39°41' W 074°06'2 4.1
2018-Jun-21 11:30N 39°43' W 074°05'3 5.0
2018-Jun-21 10:57N 39°46' W 074°06'1 2.3
2018-Jun-21 10:30N 39°45' W 074°07'0 0.0
2018-Jun-21 09:59N 39°45' W 074°07'0 0.0
2018-Jun-21 09:30N 39°45' W 074°07'0 0.0
2018-Jun-21 08:59N 39°45' W 074°07'0 0.0
2018-Jun-21 08:30N 39°45' W 074°07'0 0.0
2018-Jun-21 08:00N 39°45' W 074°07'0 0.0
2018-Jun-21 07:24N 39°45' W 074°07'0 0.0
2018-Jun-21 07:00N 39°45' W 074°07'0 0.0
2018-Jun-21 06:27N 39°45' W 074°07'0 0.0
2018-Jun-21 06:00N 39°45' W 074°07'0 0.0
2018-Jun-21 05:28N 39°45' W 074°07'0 0.0
2018-Jun-21 05:00N 39°45' W 074°07'0 0.0
2018-Jun-21 04:26N 39°45' W 074°07'0 0.0
2018-Jun-21 03:56N 39°45' W 074°07'0 0.0
2018-Jun-21 03:29N 39°45' W 074°07'0 0.0
2018-Jun-21 02:54N 39°45' W 074°07'0 0.0
2018-Jun-21 02:29N 39°45' W 074°07'0 0.0
2018-Jun-21 01:59N 39°45' W 074°07'0 0.0
2018-Jun-21 01:27N 39°45' W 074°07'0 0.0
2018-Jun-21 01:00N 39°45' W 074°07'0 0.0
2018-Jun-21 00:28N 39°45' W 074°07'0 0.0
2018-Jun-21 00:00N 39°45' W 074°07'0 0.0
2018-Jun-20 23:30N 39°45' W 074°07'0 0.0
2018-Jun-20 23:00N 39°45' W 074°07'0 0.0
2018-Jun-20 22:30N 39°45' W 074°07'0 0.0
2018-Jun-20 22:00N 39°45' W 074°07'1 2.0
2018-Jun-20 21:30N 39°46' W 074°06'2 4.3
2018-Jun-20 20:58N 39°48' W 074°05'1 0.2
2018-Jun-20 15:45N 39°49' W 074°04'2 7.3
2018-Jun-20 15:28N 39°47' W 074°05'3 7.0
2018-Jun-20 15:00N 39°44' W 074°05'4 7.2
2018-Jun-20 14:30N 39°41' W 074°08'4 7.2
2018-Jun-20 14:00N 39°38' W 074°10'1 1.4
2018-Jun-20 13:28N 39°37' W 074°11'0 1.0
2018-Jun-20 12:59N 39°38' W 074°11'0 0.7
2018-Jun-20 12:29N 39°38' W 074°11'0 0.3
2018-Jun-20 11:58N 39°38' W 074°10'2 4.6
2018-Jun-20 11:27N 39°40' W 074°09'3 6.5
2018-Jun-20 11:00N 39°42' W 074°07'3 6.5
2018-Jun-20 10:30N 39°45' W 074°05'2 3.3
2018-Jun-20 10:00N 39°45' W 074°07'0 0.0
2018-Jun-20 09:28N 39°45' W 074°07'0 0.0
2018-Jun-20 08:58N 39°45' W 074°07'0 0.0
2018-Jun-20 08:30N 39°45' W 074°07'0 0.0
2018-Jun-20 08:00N 39°45' W 074°07'0 0.0
2018-Jun-20 07:30N 39°45' W 074°07'0 0.0
2018-Jun-20 06:57N 39°45' W 074°07'0 0.0
2018-Jun-20 06:30N 39°45' W 074°07'0 0.0
2018-Jun-20 05:57N 39°45' W 074°07'0 0.0
2018-Jun-20 05:30N 39°45' W 074°07'0 0.0
2018-Jun-20 05:00N 39°45' W 074°07'0 0.0
2018-Jun-20 04:29N 39°45' W 074°07'0 0.0
2018-Jun-20 03:59N 39°45' W 074°07'0 0.0
2018-Jun-20 03:28N 39°45' W 074°07'0 0.0
2018-Jun-20 03:00N 39°45' W 074°07'0 0.0
2018-Jun-20 02:30N 39°45' W 074°07'0 0.0
2018-Jun-20 01:59N 39°45' W 074°07'0 0.0
2018-Jun-20 01:24N 39°45' W 074°07'0 0.0
2018-Jun-20 00:59N 39°45' W 074°07'0 0.0
2018-Jun-20 00:30N 39°45' W 074°07'0 0.0
2018-Jun-19 23:59N 39°45' W 074°07'0 0.0
2018-Jun-19 23:26N 39°45' W 074°07'0 0.0
2018-Jun-19 23:00N 39°45' W 074°07'0 0.0
2018-Jun-19 22:30N 39°45' W 074°07'0 0.0
2018-Jun-19 21:59N 39°45' W 074°07'0 0.0
2018-Jun-19 21:29N 39°45' W 074°07'0 0.0
2018-Jun-19 21:00N 39°45' W 074°07'0 0.0
2018-Jun-19 20:30N 39°45' W 074°07'0 0.0
2018-Jun-19 19:56N 39°45' W 074°07'0 0.0
2018-Jun-19 19:30N 39°45' W 074°07'0 0.0
2018-Jun-19 18:59N 39°45' W 074°07'0 0.0
2018-Jun-19 18:29N 39°45' W 074°07'0 0.0
2018-Jun-19 18:00N 39°45' W 074°07'1 1.7
2018-Jun-19 17:30N 39°46' W 074°07'0 0.2
2018-Jun-19 16:59N 39°46' W 074°07'0 0.4
2018-Jun-19 16:29N 39°46' W 074°07'0 0.0
2018-Jun-19 16:00N 39°46' W 074°07'0 0.0
2018-Jun-19 15:30N 39°46' W 074°07'0 0.1
2018-Jun-19 14:58N 39°46' W 074°07'1 2.4
2018-Jun-19 14:28N 39°46' W 074°06'2 3.7
2018-Jun-19 14:00N 39°44' W 074°05'3 5.0
2018-Jun-19 13:30N 39°42' W 074°07'3 5.1
2018-Jun-19 13:00N 39°40' W 074°09'2 4.7
2018-Jun-19 12:30N 39°38' W 074°11'0 0.2
2018-Jun-19 11:43N 39°38' W 074°10'0 0.4
2018-Jun-19 11:29N 39°38' W 074°11'2 4.6
2018-Jun-19 11:00N 39°39' W 074°09'3 5.6
2018-Jun-19 10:30N 39°42' W 074°07'3 5.6
2018-Jun-19 09:59N 39°44' W 074°05'2 3.5
2018-Jun-19 09:27N 39°45' W 074°07'0 0.6
2018-Jun-19 08:57N 39°45' W 074°07'0 0.0
2018-Jun-19 08:19N 39°45' W 074°07'0 0.0
2018-Jun-19 07:59N 39°45' W 074°07'0 0.0
2018-Jun-19 07:30N 39°45' W 074°07'0 0.0
2018-Jun-19 07:00N 39°45' W 074°07'0 0.0
2018-Jun-19 06:24N 39°45' W 074°07'0 0.0
2018-Jun-19 05:59N 39°45' W 074°07'0 0.0
2018-Jun-19 05:29N 39°45' W 074°07'0 0.0
2018-Jun-19 04:58N 39°45' W 074°07'0 0.0
2018-Jun-19 04:30N 39°45' W 074°07'0 0.0
2018-Jun-19 04:00N 39°45' W 074°07'0 0.0
2018-Jun-19 03:30N 39°45' W 074°07'0 0.0
2018-Jun-19 02:52N 39°45' W 074°07'0 0.0
2018-Jun-19 02:30N 39°45' W 074°07'0 0.0
2018-Jun-19 02:00N 39°45' W 074°07'0 0.0
2018-Jun-19 01:29N 39°45' W 074°07'0 0.0
2018-Jun-19 01:00N 39°45' W 074°07'0 0.0
2018-Jun-19 00:28N 39°45' W 074°07'0 0.0
2018-Jun-19 00:00N 39°45' W 074°07'0 0.0
2018-Jun-18 23:28N 39°45' W 074°07'0 0.0
2018-Jun-18 22:57N 39°45' W 074°07'0 0.0
2018-Jun-18 22:28N 39°45' W 074°07'0 0.0
2018-Jun-18 21:59N 39°45' W 074°07'0 0.0
2018-Jun-18 21:28N 39°45' W 074°07'0 0.0
2018-Jun-18 21:00N 39°45' W 074°07'0 0.3
2018-Jun-18 20:30N 39°45' W 074°07'2 2.7
2018-Jun-18 19:52N 39°45' W 074°05'3 7.2
2018-Jun-18 19:28N 39°42' W 074°05'1 2.3
2018-Jun-18 18:53N 39°41' W 074°06'0 0.0
2018-Jun-18 18:29N 39°41' W 074°06'0 0.0
2018-Jun-18 17:59N 39°41' W 074°06'0 0.0
2018-Jun-18 17:25N 39°41' W 074°06'0 0.0
2018-Jun-18 16:55N 39°41' W 074°06'0 0.1
2018-Jun-18 16:19N 39°41' W 074°06'1 3.0
2018-Jun-18 15:59N 39°40' W 074°06'2 4.1
2018-Jun-18 15:30N 39°39' W 074°09'0 0.1
2018-Jun-18 15:00N 39°39' W 074°09'0 0.0
2018-Jun-18 14:28N 39°39' W 074°09'0 0.2
2018-Jun-18 13:58N 39°39' W 074°09'2 4.0
2018-Jun-18 13:30N 39°38' W 074°10'0 0.7
2018-Jun-18 12:59N 39°37' W 074°10'0 0.1
2018-Jun-18 12:29N 39°37' W 074°10'0 0.4
2018-Jun-18 11:58N 39°38' W 074°10'3 5.7
2018-Jun-18 11:28N 39°40' W 074°08'3 6.2
2018-Jun-18 11:00N 39°43' W 074°06'3 5.6
2018-Jun-18 10:27N 39°46' W 074°05'1 2.4
2018-Jun-18 10:00N 39°45' W 074°07'0 0.0
2018-Jun-18 09:28N 39°45' W 074°07'0 0.0
2018-Jun-18 09:00N 39°45' W 074°07'0 0.0
2018-Jun-18 08:30N 39°45' W 074°07'0 0.0
2018-Jun-18 08:00N 39°45' W 074°07'0 0.0
2018-Jun-18 07:30N 39°45' W 074°07'0 0.0
2018-Jun-18 06:58N 39°45' W 074°07'0 0.0
2018-Jun-18 06:30N 39°45' W 074°07'0 0.0
2018-Jun-18 06:00N 39°45' W 074°07'0 0.0
2018-Jun-18 05:29N 39°45' W 074°07'0 0.0
2018-Jun-18 04:59N 39°45' W 074°07'0 0.0
2018-Jun-18 04:30N 39°45' W 074°07'0 0.0
2018-Jun-18 04:00N 39°45' W 074°07'0 0.0
2018-Jun-18 03:29N 39°45' W 074°07'0 0.0
2018-Jun-18 02:59N 39°45' W 074°07'0 0.0
2018-Jun-18 02:27N 39°45' W 074°07'0 0.0
2018-Jun-18 01:54N 39°45' W 074°07'0 0.0
2018-Jun-18 01:30N 39°45' W 074°07'0 0.0
2018-Jun-18 00:54N 39°45' W 074°07'0 0.0
2018-Jun-18 00:30N 39°45' W 074°07'0 0.0
2018-Jun-18 00:00N 39°45' W 074°07'0 0.0
2018-Jun-17 23:30N 39°45' W 074°07'0 0.0
2018-Jun-17 23:00N 39°45' W 074°07'1 1.5
2018-Jun-17 22:30N 39°46' W 074°07'2 3.6
2018-Jun-17 22:00N 39°45' W 074°05'4 7.6
2018-Jun-17 21:30N 39°41' W 074°06'1 1.0
2018-Jun-17 21:00N 39°41' W 074°06'1 1.2
2018-Jun-17 20:30N 39°41' W 074°06'0 0.3
2018-Jun-17 19:58N 39°41' W 074°07'0 0.3
2018-Jun-17 19:30N 39°41' W 074°07'0 0.2
2018-Jun-17 18:58N 39°41' W 074°07'0 0.0
2018-Jun-17 18:27N 39°41' W 074°07'1 1.4
2018-Jun-17 18:00N 39°41' W 074°06'0 0.1
2018-Jun-17 17:29N 39°41' W 074°06'1 1.5
2018-Jun-17 17:00N 39°41' W 074°07'0 0.3
2018-Jun-17 16:29N 39°41' W 074°06'0 0.2
2018-Jun-17 16:00N 39°41' W 074°06'0 0.0
2018-Jun-17 15:29N 39°41' W 074°06'0 0.3
2018-Jun-17 14:57N 39°41' W 074°06'0 0.1
2018-Jun-17 14:30N 39°41' W 074°07'0 0.2
2018-Jun-17 14:00N 39°41' W 074°07'0 0.1
2018-Jun-17 13:30N 39°41' W 074°07'0 0.3
2018-Jun-17 12:59N 39°41' W 074°07'0 0.1
2018-Jun-17 12:29N 39°41' W 074°07'0 0.2
2018-Jun-17 11:59N 39°41' W 074°07'0 0.4
2018-Jun-17 11:30N 39°41' W 074°07'2 3.3
2018-Jun-17 10:59N 39°41' W 074°04'1 1.6
2018-Jun-17 10:30N 39°41' W 074°03'2 3.5
2018-Jun-17 09:59N 39°43' W 074°04'4 7.9
2018-Jun-17 09:30N 39°46' W 074°06'1 1.8
2018-Jun-17 09:00N 39°45' W 074°07'0 0.0
2018-Jun-17 08:29N 39°45' W 074°07'0 0.0
2018-Jun-17 08:00N 39°45' W 074°07'0 0.0
2018-Jun-17 07:29N 39°45' W 074°07'0 0.0
2018-Jun-17 06:53N 39°45' W 074°07'0 0.0
2018-Jun-17 06:28N 39°45' W 074°07'0 0.0
2018-Jun-17 05:58N 39°45' W 074°07'0 0.0
2018-Jun-17 05:30N 39°45' W 074°07'0 0.0
2018-Jun-17 04:59N 39°45' W 074°07'0 0.0
2018-Jun-17 04:30N 39°45' W 074°07'0 0.0
2018-Jun-17 04:00N 39°45' W 074°07'0 0.0
2018-Jun-17 03:29N 39°45' W 074°07'0 0.0
2018-Jun-17 03:00N 39°45' W 074°07'0 0.0
2018-Jun-17 02:28N 39°45' W 074°07'0 0.0
2018-Jun-17 01:58N 39°45' W 074°07'0 0.0
2018-Jun-17 01:30N 39°45' W 074°07'0 0.0
2018-Jun-17 00:59N 39°45' W 074°07'0 0.0
2018-Jun-17 00:30N 39°45' W 074°07'0 0.0
2018-Jun-17 00:00N 39°45' W 074°07'0 0.0
2018-Jun-16 23:29N 39°45' W 074°07'0 0.0
2018-Jun-16 23:00N 39°45' W 074°07'1 2.3
2018-Jun-16 22:30N 39°45' W 074°05'4 9.0
2018-Jun-16 22:00N 39°41' W 074°06'0 0.8
2018-Jun-16 21:29N 39°41' W 074°07'0 0.2
2018-Jun-16 20:56N 39°41' W 074°07'0 0.2
2018-Jun-16 20:30N 39°41' W 074°07'0 0.3
2018-Jun-16 19:59N 39°41' W 074°07'0 0.3
2018-Jun-16 19:29N 39°41' W 074°07'0 0.1
2018-Jun-16 19:00N 39°41' W 074°07'0 0.1
2018-Jun-16 18:30N 39°41' W 074°07'0 0.7
2018-Jun-16 17:58N 39°41' W 074°06'2 3.7
2018-Jun-16 17:30N 39°41' W 074°04'0 0.0
2018-Jun-16 16:54N 39°41' W 074°04'0 0.0
2018-Jun-16 16:25N 39°41' W 074°04'0 0.0
2018-Jun-16 15:54N 39°41' W 074°04'0 0.3
2018-Jun-16 15:30N 39°41' W 074°04'0 0.5
2018-Jun-16 14:57N 39°41' W 074°04'0 0.4
2018-Jun-16 14:28N 39°41' W 074°04'0 0.1
2018-Jun-16 14:00N 39°41' W 074°04'0 0.0
2018-Jun-16 13:30N 39°41' W 074°04'0 0.4
2018-Jun-16 12:58N 39°41' W 074°04'0 0.4
2018-Jun-16 12:25N 39°41' W 074°04'1 2.6
2018-Jun-16 12:00N 39°41' W 074°05'0 0.1
2018-Jun-16 11:28N 39°41' W 074°05'1 1.9
2018-Jun-16 10:57N 39°41' W 074°04'0 0.1
2018-Jun-16 10:24N 39°41' W 074°04'0 1.1
2018-Jun-16 09:59N 39°42' W 074°04'2 3.4
2018-Jun-16 09:30N 39°43' W 074°04'3 5.8
2018-Jun-16 08:58N 39°46' W 074°06'1 1.6
2018-Jun-16 08:29N 39°45' W 074°07'0 0.0
2018-Jun-16 07:57N 39°45' W 074°07'0 0.0
2018-Jun-16 07:30N 39°45' W 074°07'0 0.0
2018-Jun-16 07:00N 39°45' W 074°07'0 0.0
2018-Jun-16 06:30N 39°45' W 074°07'0 0.0
2018-Jun-16 06:00N 39°45' W 074°07'0 0.0
2018-Jun-16 05:29N 39°45' W 074°07'0 0.0
2018-Jun-16 04:59N 39°45' W 074°07'0 0.0
2018-Jun-16 04:28N 39°45' W 074°07'0 0.0
2018-Jun-16 03:58N 39°45' W 074°07'0 0.0
2018-Jun-16 03:30N 39°45' W 074°07'0 0.0
2018-Jun-16 02:56N 39°45' W 074°07'0 0.0
2018-Jun-16 02:30N 39°45' W 074°07'0 0.0
2018-Jun-16 01:56N 39°45' W 074°07'0 0.0
2018-Jun-16 01:28N 39°45' W 074°07'0 0.0
2018-Jun-16 00:59N 39°45' W 074°07'0 0.0
2018-Jun-16 00:26N 39°45' W 074°07'0 0.0
2018-Jun-16 00:00N 39°45' W 074°07'0 0.0
2018-Jun-15 23:28N 39°45' W 074°07'0 0.0
2018-Jun-15 22:59N 39°45' W 074°07'0 0.0
2018-Jun-15 22:30N 39°45' W 074°07'0 0.0
2018-Jun-15 21:58N 39°45' W 074°07'0 0.0
2018-Jun-15 21:27N 39°45' W 074°07'2 3.0
2018-Jun-15 20:56N 39°45' W 074°05'3 6.9
2018-Jun-15 20:28N 39°42' W 074°07'4 5.5
2018-Jun-15 19:50N 39°39' W 074°09'0 0.7
2018-Jun-15 19:30N 39°39' W 074°09'0 0.4
2018-Jun-15 18:53N 39°39' W 074°09'0 0.0
2018-Jun-15 18:30N 39°39' W 074°09'2 2.8
2018-Jun-15 17:46N 39°37' W 074°10'1 2.0
2018-Jun-15 17:08N 39°36' W 074°11'0 1.1
2018-Jun-15 17:00N 39°36' W 074°11'1 1.7
2018-Jun-15 16:28N 39°35' W 074°11'16 1.6
2018-Jun-15 06:11N 39°24' W 074°26'0 0.0
2018-Jun-15 06:00N 39°24' W 074°26'0 0.0
2018-Jun-15 05:30N 39°24' W 074°26'0 0.0
2018-Jun-15 05:00N 39°24' W 074°26'0 0.0
2018-Jun-15 04:30N 39°24' W 074°26'0 0.0
2018-Jun-15 03:56N 39°24' W 074°26'0 0.0
2018-Jun-15 03:27N 39°24' W 074°26'  
2018-Jun-12 12:54N 39°22' W 074°26'0 0.0
2018-Jun-12 12:31N 39°22' W 074°26'0 0.0
2018-Jun-12 12:00N 39°22' W 074°26'0 0.0
2018-Jun-12 11:29N 39°22' W 074°26'1 2.9
2018-Jun-12 11:01N 39°24' W 074°26'0 0.0
2018-Jun-12 10:12N 39°24' W 074°26'0 0.0
2018-Jun-12 09:58N 39°24' W 074°26'0 0.0
2018-Jun-12 09:02N 39°24' W 074°26'0 0.0
2018-Jun-12 08:47N 39°24' W 074°26'0 0.0
2018-Jun-12 08:13N 39°24' W 074°26'0 0.0
2018-Jun-12 07:04N 39°24' W 074°26'0 0.0
2018-Jun-12 07:00N 39°24' W 074°26'0 0.1
2018-Jun-12 06:29N 39°24' W 074°26'0 0.0
2018-Jun-12 05:57N 39°24' W 074°26'0 0.0
2018-Jun-12 05:23N 39°24' W 074°26'0 0.0
2018-Jun-12 02:09N 39°24' W 074°26'0 0.0
2018-Jun-12 01:59N 39°24' W 074°26'0 0.0
2018-Jun-12 01:03N 39°24' W 074°26'0 0.0
2018-Jun-12 01:00N 39°24' W 074°26'0 0.0
2018-Jun-12 00:30N 39°24' W 074°26'  

Dump ship's entire track history